sensor_id;sensor_type;location;lat;lon;timestamp;pressure;altitude;pressure_sealevel;temperature;humidity
62038;BME280;47991;42.974;12.082;2022-07-23T00:00:24;97901.85;;;25.94;44.08
62038;BME280;47991;42.974;12.082;2022-07-23T00:03:02;97898.05;;;26.00;43.89
62038;BME280;47991;42.974;12.082;2022-07-23T00:05:30;97898.52;;;26.03;44.00
62038;BME280;47991;42.974;12.082;2022-07-23T00:07:58;97896.00;;;26.02;44.94
62038;BME280;47991;42.974;12.082;2022-07-23T00:10:27;97898.23;;;26.02;45.28
62038;BME280;47991;42.974;12.082;2022-07-23T00:12:54;97897.45;;;26.00;45.49
62038;BME280;47991;42.974;12.082;2022-07-23T00:15:25;97899.27;;;26.02;45.76
62038;BME280;47991;42.974;12.082;2022-07-23T00:17:59;97897.52;;;26.04;45.63
62038;BME280;47991;42.974;12.082;2022-07-23T00:20:38;97894.12;;;26.05;45.23
62038;BME280;47991;42.974;12.082;2022-07-23T00:23:07;97899.51;;;26.08;45.35
62038;BME280;47991;42.974;12.082;2022-07-23T00:25:35;97899.85;;;26.06;45.83
62038;BME280;47991;42.974;12.082;2022-07-23T00:28:04;97901.72;;;26.01;45.64
62038;BME280;47991;42.974;12.082;2022-07-23T00:30:33;97902.45;;;25.93;46.71
62038;BME280;47991;42.974;12.082;2022-07-23T00:33:07;97899.23;;;25.72;47.05
62038;BME280;47991;42.974;12.082;2022-07-23T00:35:37;97903.27;;;25.55;48.01
62038;BME280;47991;42.974;12.082;2022-07-23T00:38:09;97894.90;;;25.30;48.69
62038;BME280;47991;42.974;12.082;2022-07-23T00:40:37;97892.33;;;25.09;49.23
62038;BME280;47991;42.974;12.082;2022-07-23T00:43:09;97887.98;;;25.07;47.65
62038;BME280;47991;42.974;12.082;2022-07-23T00:45:38;97887.94;;;25.22;47.98
62038;BME280;47991;42.974;12.082;2022-07-23T00:48:08;97888.41;;;25.32;47.56
62038;BME280;47991;42.974;12.082;2022-07-23T00:50:36;97891.05;;;25.37;48.34
62038;BME280;47991;42.974;12.082;2022-07-23T00:53:05;97887.92;;;25.29;48.31
62038;BME280;47991;42.974;12.082;2022-07-23T00:55:34;97888.64;;;25.21;48.83
62038;BME280;47991;42.974;12.082;2022-07-23T00:58:03;97886.55;;;25.11;49.65
62038;BME280;47991;42.974;12.082;2022-07-23T01:00:32;97884.50;;;25.04;50.04
62038;BME280;47991;42.974;12.082;2022-07-23T01:03:00;97881.66;;;25.03;49.72
62038;BME280;47991;42.974;12.082;2022-07-23T01:05:34;97881.61;;;25.08;49.53
62038;BME280;47991;42.974;12.082;2022-07-23T01:08:06;97876.95;;;25.13;49.04
62038;BME280;47991;42.974;12.082;2022-07-23T01:10:35;97876.14;;;25.18;48.81
62038;BME280;47991;42.974;12.082;2022-07-23T01:13:07;97878.52;;;25.20;49.74
62038;BME280;47991;42.974;12.082;2022-07-23T01:15:37;97875.45;;;25.07;51.44
62038;BME280;47991;42.974;12.082;2022-07-23T01:18:09;97879.17;;;24.87;51.95
62038;BME280;47991;42.974;12.082;2022-07-23T01:20:38;97877.89;;;24.64;52.17
62038;BME280;47991;42.974;12.082;2022-07-23T01:23:08;97879.36;;;24.61;51.22
62038;BME280;47991;42.974;12.082;2022-07-23T01:25:37;97877.92;;;24.55;51.91
62038;BME280;47991;42.974;12.082;2022-07-23T01:28:09;97877.52;;;24.62;51.49
62038;BME280;47991;42.974;12.082;2022-07-23T01:30:41;97871.66;;;24.41;53.93
62038;BME280;47991;42.974;12.082;2022-07-23T01:33:10;97870.09;;;24.16;54.13
62038;BME280;47991;42.974;12.082;2022-07-23T01:35:39;97866.08;;;24.01;54.65
62038;BME280;47991;42.974;12.082;2022-07-23T01:38:10;97865.84;;;23.97;54.88
62038;BME280;47991;42.974;12.082;2022-07-23T01:40:40;97870.05;;;23.83;55.75
62038;BME280;47991;42.974;12.082;2022-07-23T01:43:09;97864.50;;;23.80;55.57
62038;BME280;47991;42.974;12.082;2022-07-23T01:45:37;97863.08;;;23.84;55.10
62038;BME280;47991;42.974;12.082;2022-07-23T01:48:06;97867.83;;;23.84;55.55
62038;BME280;47991;42.974;12.082;2022-07-23T01:50:41;97871.45;;;24.02;55.01
62038;BME280;47991;42.974;12.082;2022-07-23T01:53:30;97869.20;;;24.20;54.56
62038;BME280;47991;42.974;12.082;2022-07-23T01:56:02;97865.36;;;24.34;53.74
62038;BME280;47991;42.974;12.082;2022-07-23T01:58:31;97863.73;;;24.38;54.92
62038;BME280;47991;42.974;12.082;2022-07-23T02:01:04;97859.98;;;24.36;55.94
62038;BME280;47991;42.974;12.082;2022-07-23T02:03:32;97863.58;;;24.23;56.54
62038;BME280;47991;42.974;12.082;2022-07-23T02:06:01;97865.98;;;24.24;56.09
62038;BME280;47991;42.974;12.082;2022-07-23T02:08:30;97868.69;;;24.15;56.12
62038;BME280;47991;42.974;12.082;2022-07-23T02:10:58;97865.99;;;24.22;54.82
62038;BME280;47991;42.974;12.082;2022-07-23T02:13:26;97861.14;;;24.37;54.52
62038;BME280;47991;42.974;12.082;2022-07-23T02:15:56;97859.34;;;24.39;54.85
62038;BME280;47991;42.974;12.082;2022-07-23T02:18:24;97859.48;;;24.26;54.33
62038;BME280;47991;42.974;12.082;2022-07-23T02:20:53;97858.36;;;24.29;53.49
62038;BME280;47991;42.974;12.082;2022-07-23T02:23:21;97860.57;;;24.33;53.28
62038;BME280;47991;42.974;12.082;2022-07-23T02:25:48;97861.85;;;24.35;53.34
62038;BME280;47991;42.974;12.082;2022-07-23T02:28:16;97864.95;;;24.28;54.02
62038;BME280;47991;42.974;12.082;2022-07-23T02:30:45;97868.69;;;24.20;54.33
62038;BME280;47991;42.974;12.082;2022-07-23T02:33:13;97869.23;;;24.13;54.98
62038;BME280;47991;42.974;12.082;2022-07-23T02:35:41;97871.04;;;24.11;54.50
62038;BME280;47991;42.974;12.082;2022-07-23T02:38:10;97869.70;;;24.12;54.70
62038;BME280;47991;42.974;12.082;2022-07-23T02:40:38;97871.02;;;24.14;55.42
62038;BME280;47991;42.974;12.082;2022-07-23T02:43:06;97868.64;;;24.07;54.92
62038;BME280;47991;42.974;12.082;2022-07-23T02:45:34;97871.73;;;24.03;55.26
62038;BME280;47991;42.974;12.082;2022-07-23T02:48:02;97868.63;;;23.94;55.31
62038;BME280;47991;42.974;12.082;2022-07-23T02:50:30;97866.30;;;23.85;55.02
62038;BME280;47991;42.974;12.082;2022-07-23T02:52:59;97866.18;;;23.77;55.98
62038;BME280;47991;42.974;12.082;2022-07-23T02:55:27;97866.19;;;23.68;55.15
62038;BME280;47991;42.974;12.082;2022-07-23T02:57:55;97867.68;;;23.69;56.09
62038;BME280;47991;42.974;12.082;2022-07-23T03:00:24;97865.91;;;23.69;55.94
62038;BME280;47991;42.974;12.082;2022-07-23T03:02:51;97869.85;;;23.63;56.88
62038;BME280;47991;42.974;12.082;2022-07-23T03:05:20;97869.73;;;23.53;56.76
62038;BME280;47991;42.974;12.082;2022-07-23T03:07:48;97870.11;;;23.50;56.71
62038;BME280;47991;42.974;12.082;2022-07-23T03:10:15;97870.19;;;23.47;56.13
62038;BME280;47991;42.974;12.082;2022-07-23T03:12:45;97871.26;;;23.40;57.20
62038;BME280;47991;42.974;12.082;2022-07-23T03:15:13;97869.95;;;23.30;57.30
62038;BME280;47991;42.974;12.082;2022-07-23T03:17:44;97875.85;;;23.23;57.49
62038;BME280;47991;42.974;12.082;2022-07-23T03:20:12;97873.39;;;23.16;57.72
62038;BME280;47991;42.974;12.082;2022-07-23T03:22:41;97875.25;;;23.12;56.66
62038;BME280;47991;42.974;12.082;2022-07-23T03:25:09;97875.95;;;23.13;57.49
62038;BME280;47991;42.974;12.082;2022-07-23T03:27:37;97878.77;;;23.04;57.87
62038;BME280;47991;42.974;12.082;2022-07-23T03:30:07;97885.30;;;22.98;58.47
62038;BME280;47991;42.974;12.082;2022-07-23T03:32:35;97883.65;;;22.80;58.57
62038;BME280;47991;42.974;12.082;2022-07-23T03:35:04;97879.20;;;22.77;58.49
62038;BME280;47991;42.974;12.082;2022-07-23T03:37:33;97882.05;;;22.75;58.33
62038;BME280;47991;42.974;12.082;2022-07-23T03:40:02;97883.07;;;22.74;57.71
62038;BME280;47991;42.974;12.082;2022-07-23T03:42:30;97886.09;;;22.74;57.79
62038;BME280;47991;42.974;12.082;2022-07-23T03:44:59;97890.22;;;22.74;58.22
62038;BME280;47991;42.974;12.082;2022-07-23T03:47:28;97894.20;;;22.57;59.17
62038;BME280;47991;42.974;12.082;2022-07-23T03:49:56;97894.70;;;22.43;59.94
62038;BME280;47991;42.974;12.082;2022-07-23T03:52:24;97895.02;;;22.39;58.96
62038;BME280;47991;42.974;12.082;2022-07-23T03:54:53;97897.83;;;22.45;58.79
62038;BME280;47991;42.974;12.082;2022-07-23T03:57:24;97900.54;;;22.57;58.89
62038;BME280;47991;42.974;12.082;2022-07-23T03:59:52;97902.04;;;22.58;58.81
62038;BME280;47991;42.974;12.082;2022-07-23T04:02:20;97900.33;;;22.57;59.18
62038;BME280;47991;42.974;12.082;2022-07-23T04:04:48;97903.95;;;22.52;59.97
62038;BME280;47991;42.974;12.082;2022-07-23T04:07:17;97903.63;;;22.45;59.47
62038;BME280;47991;42.974;12.082;2022-07-23T04:09:45;97903.30;;;22.39;60.20
62038;BME280;47991;42.974;12.082;2022-07-23T04:12:13;97906.67;;;22.37;60.73
62038;BME280;47991;42.974;12.082;2022-07-23T04:14:42;97908.52;;;22.39;60.27
62038;BME280;47991;42.974;12.082;2022-07-23T04:17:11;97908.60;;;22.41;60.40
62038;BME280;47991;42.974;12.082;2022-07-23T04:19:39;97912.66;;;22.44;59.43
62038;BME280;47991;42.974;12.082;2022-07-23T04:22:09;97912.98;;;22.62;59.56
62038;BME280;47991;42.974;12.082;2022-07-23T04:24:38;97911.17;;;22.66;59.29
62038;BME280;47991;42.974;12.082;2022-07-23T04:27:06;97911.26;;;22.68;59.71
62038;BME280;47991;42.974;12.082;2022-07-23T04:29:34;97913.60;;;22.70;59.43
62038;BME280;47991;42.974;12.082;2022-07-23T04:32:03;97916.77;;;22.76;59.22
62038;BME280;47991;42.974;12.082;2022-07-23T04:34:31;97919.38;;;23.13;58.79
62038;BME280;47991;42.974;12.082;2022-07-23T04:37:00;97922.66;;;23.34;58.64
62038;BME280;47991;42.974;12.082;2022-07-23T04:39:32;97918.72;;;23.63;57.81
62038;BME280;47991;42.974;12.082;2022-07-23T04:42:00;97920.04;;;23.76;57.54
62038;BME280;47991;42.974;12.082;2022-07-23T04:44:29;97923.04;;;23.68;57.55
62038;BME280;47991;42.974;12.082;2022-07-23T04:46:58;97927.71;;;23.89;57.58
62038;BME280;47991;42.974;12.082;2022-07-23T04:49:26;97927.57;;;23.93;57.07
62038;BME280;47991;42.974;12.082;2022-07-23T04:51:53;97924.59;;;23.71;58.65
62038;BME280;47991;42.974;12.082;2022-07-23T04:54:22;97927.23;;;24.06;57.61
62038;BME280;47991;42.974;12.082;2022-07-23T04:56:50;97920.56;;;24.94;55.72
62038;BME280;47991;42.974;12.082;2022-07-23T04:59:18;97922.66;;;25.12;55.10
62038;BME280;47991;42.974;12.082;2022-07-23T05:01:47;97924.52;;;25.09;55.27
62038;BME280;47991;42.974;12.082;2022-07-23T05:04:15;97921.73;;;25.14;55.42
62038;BME280;47991;42.974;12.082;2022-07-23T05:06:43;97925.71;;;25.06;55.62
62038;BME280;47991;42.974;12.082;2022-07-23T05:09:12;97928.24;;;24.87;56.13
62038;BME280;47991;42.974;12.082;2022-07-23T05:11:40;97929.20;;;24.94;56.20
62038;BME280;47991;42.974;12.082;2022-07-23T05:14:08;97924.94;;;25.55;55.12
62038;BME280;47991;42.974;12.082;2022-07-23T05:16:40;97921.79;;;26.46;53.35
62038;BME280;47991;42.974;12.082;2022-07-23T05:19:22;97919.70;;;27.45;51.10
62038;BME280;47991;42.974;12.082;2022-07-23T05:21:51;97920.40;;;28.27;49.13
62038;BME280;47991;42.974;12.082;2022-07-23T05:24:19;97919.48;;;29.11;47.29
62038;BME280;47991;42.974;12.082;2022-07-23T05:26:47;97914.80;;;29.69;45.79
62038;BME280;47991;42.974;12.082;2022-07-23T05:29:15;97916.14;;;30.39;44.74
62038;BME280;47991;42.974;12.082;2022-07-23T05:31:43;97915.61;;;31.23;42.82
62038;BME280;47991;42.974;12.082;2022-07-23T05:34:12;97917.81;;;31.96;41.22
62038;BME280;47991;42.974;12.082;2022-07-23T05:36:40;97915.02;;;32.27;40.56
62038;BME280;47991;42.974;12.082;2022-07-23T05:39:09;97914.18;;;32.64;39.80
62038;BME280;47991;42.974;12.082;2022-07-23T05:41:37;97913.23;;;33.19;38.97
62038;BME280;47991;42.974;12.082;2022-07-23T05:44:05;97907.44;;;33.81;37.78
62038;BME280;47991;42.974;12.082;2022-07-23T05:46:38;97908.89;;;34.47;36.24
62038;BME280;47991;42.974;12.082;2022-07-23T05:49:08;97911.60;;;34.88;35.72
62038;BME280;47991;42.974;12.082;2022-07-23T05:51:49;97910.64;;;35.10;35.01
62038;BME280;47991;42.974;12.082;2022-07-23T05:54:28;97917.71;;;34.85;35.40
62038;BME280;47991;42.974;12.082;2022-07-23T05:56:57;97912.59;;;34.61;36.33
62038;BME280;47991;42.974;12.082;2022-07-23T05:59:27;97916.23;;;34.08;37.55
62038;BME280;47991;42.974;12.082;2022-07-23T06:01:55;97916.27;;;33.26;38.46
62038;BME280;47991;42.974;12.082;2022-07-23T06:04:23;97920.21;;;32.43;39.99
62038;BME280;47991;42.974;12.082;2022-07-23T06:07:08;97918.27;;;31.70;40.02
62038;BME280;47991;42.974;12.082;2022-07-23T06:09:36;97915.88;;;30.89;39.87
62038;BME280;47991;42.974;12.082;2022-07-23T06:12:05;97916.77;;;30.29;41.09
62038;BME280;47991;42.974;12.082;2022-07-23T06:14:33;97920.50;;;30.12;42.58
62038;BME280;47991;42.974;12.082;2022-07-23T06:17:01;97922.52;;;30.08;41.93
62038;BME280;47991;42.974;12.082;2022-07-23T06:19:30;97919.35;;;30.16;42.07
62038;BME280;47991;42.974;12.082;2022-07-23T06:21:58;97923.41;;;30.31;42.03
62038;BME280;47991;42.974;12.082;2022-07-23T06:24:28;97926.66;;;30.31;42.01
62038;BME280;47991;42.974;12.082;2022-07-23T06:26:56;97930.23;;;30.44;41.82
62038;BME280;47991;42.974;12.082;2022-07-23T06:29:23;97930.46;;;30.11;42.22
62038;BME280;47991;42.974;12.082;2022-07-23T06:31:52;97933.90;;;29.66;42.88
62038;BME280;47991;42.974;12.082;2022-07-23T06:34:20;97936.84;;;29.51;43.15
62038;BME280;47991;42.974;12.082;2022-07-23T06:36:48;97935.27;;;29.77;42.60
62038;BME280;47991;42.974;12.082;2022-07-23T06:39:16;97938.17;;;30.05;42.10
62038;BME280;47991;42.974;12.082;2022-07-23T06:41:47;97937.71;;;30.01;42.07
62038;BME280;47991;42.974;12.082;2022-07-23T06:44:18;97936.73;;;29.94;41.82
62038;BME280;47991;42.974;12.082;2022-07-23T06:46:48;97938.00;;;29.59;42.59
62038;BME280;47991;42.974;12.082;2022-07-23T06:49:16;97941.81;;;29.28;43.27
62038;BME280;47991;42.974;12.082;2022-07-23T06:51:44;97937.54;;;29.48;43.26
62038;BME280;47991;42.974;12.082;2022-07-23T06:54:13;97936.16;;;29.79;42.58
62038;BME280;47991;42.974;12.082;2022-07-23T06:56:41;97931.20;;;29.87;41.36
62038;BME280;47991;42.974;12.082;2022-07-23T06:59:11;97928.19;;;29.98;41.20
62038;BME280;47991;42.974;12.082;2022-07-23T07:01:40;97927.28;;;30.23;41.05
62038;BME280;47991;42.974;12.082;2022-07-23T07:04:08;97924.59;;;30.44;40.48
62038;BME280;47991;42.974;12.082;2022-07-23T07:06:40;97927.05;;;30.56;40.05
62038;BME280;47991;42.974;12.082;2022-07-23T07:09:08;97923.31;;;30.76;39.68
62038;BME280;47991;42.974;12.082;2022-07-23T07:11:36;97922.33;;;30.92;38.76
62038;BME280;47991;42.974;12.082;2022-07-23T07:14:05;97920.30;;;30.83;39.12
62038;BME280;47991;42.974;12.082;2022-07-23T07:16:33;97915.19;;;30.97;38.63
62038;BME280;47991;42.974;12.082;2022-07-23T07:19:01;97918.74;;;30.95;38.61
62038;BME280;47991;42.974;12.082;2022-07-23T07:21:29;97917.94;;;30.95;38.65
62038;BME280;47991;42.974;12.082;2022-07-23T07:23:56;97916.84;;;30.88;38.25
62038;BME280;47991;42.974;12.082;2022-07-23T07:26:24;97914.48;;;30.93;38.86
62038;BME280;47991;42.974;12.082;2022-07-23T07:28:52;97914.96;;;31.07;38.12
62038;BME280;47991;42.974;12.082;2022-07-23T07:31:20;97910.89;;;31.36;37.43
62038;BME280;47991;42.974;12.082;2022-07-23T07:33:48;97909.39;;;31.30;37.51
62038;BME280;47991;42.974;12.082;2022-07-23T07:36:16;97910.76;;;31.40;37.22
62038;BME280;47991;42.974;12.082;2022-07-23T07:38:44;97910.22;;;31.07;37.27
62038;BME280;47991;42.974;12.082;2022-07-23T07:41:12;97913.42;;;31.29;37.35
62038;BME280;47991;42.974;12.082;2022-07-23T07:43:40;97913.30;;;31.59;36.91
62038;BME280;47991;42.974;12.082;2022-07-23T07:46:08;97912.42;;;31.86;36.32
62038;BME280;47991;42.974;12.082;2022-07-23T07:48:37;97910.80;;;31.74;36.14
62038;BME280;47991;42.974;12.082;2022-07-23T07:51:05;97910.80;;;31.71;36.51
62038;BME280;47991;42.974;12.082;2022-07-23T07:53:33;97914.01;;;31.91;36.28
62038;BME280;47991;42.974;12.082;2022-07-23T07:56:01;97917.00;;;32.10;35.55
62038;BME280;47991;42.974;12.082;2022-07-23T07:58:31;97914.23;;;32.37;34.55
62038;BME280;47991;42.974;12.082;2022-07-23T08:00:59;97917.67;;;32.48;33.95
62038;BME280;47991;42.974;12.082;2022-07-23T08:03:27;97918.23;;;32.50;33.86
62038;BME280;47991;42.974;12.082;2022-07-23T08:05:56;97916.64;;;32.02;33.63
62038;BME280;47991;42.974;12.082;2022-07-23T08:08:24;97913.49;;;31.91;34.69
62038;BME280;47991;42.974;12.082;2022-07-23T08:10:52;97915.75;;;31.85;34.47
62038;BME280;47991;42.974;12.082;2022-07-23T08:13:20;97908.96;;;31.97;34.25
62038;BME280;47991;42.974;12.082;2022-07-23T08:15:49;97907.11;;;31.97;34.29
62038;BME280;47991;42.974;12.082;2022-07-23T08:18:17;97905.73;;;32.31;33.75
62038;BME280;47991;42.974;12.082;2022-07-23T08:20:44;97903.39;;;32.66;33.46
62038;BME280;47991;42.974;12.082;2022-07-23T08:23:12;97904.02;;;32.74;32.34
62038;BME280;47991;42.974;12.082;2022-07-23T08:25:42;97905.89;;;32.43;32.31
62038;BME280;47991;42.974;12.082;2022-07-23T08:28:11;97907.86;;;32.56;32.39
62038;BME280;47991;42.974;12.082;2022-07-23T08:30:41;97908.86;;;32.80;31.98
62038;BME280;47991;42.974;12.082;2022-07-23T08:33:12;97906.21;;;32.74;32.15
62038;BME280;47991;42.974;12.082;2022-07-23T08:35:48;97905.93;;;32.75;32.15
62038;BME280;47991;42.974;12.082;2022-07-23T08:38:19;97909.49;;;33.00;31.65
62038;BME280;47991;42.974;12.082;2022-07-23T08:40:49;97906.65;;;33.13;31.39
62038;BME280;47991;42.974;12.082;2022-07-23T08:43:24;97905.35;;;33.34;31.06
62038;BME280;47991;42.974;12.082;2022-07-23T08:45:55;97898.55;;;33.61;30.05
62038;BME280;47991;42.974;12.082;2022-07-23T08:48:26;97902.62;;;33.38;30.35
62038;BME280;47991;42.974;12.082;2022-07-23T08:50:57;97892.64;;;33.65;30.01
62038;BME280;47991;42.974;12.082;2022-07-23T08:53:26;97895.31;;;33.80;29.89
62038;BME280;47991;42.974;12.082;2022-07-23T08:55:58;97891.20;;;33.87;29.44
62038;BME280;47991;42.974;12.082;2022-07-23T08:58:26;97888.07;;;34.12;29.32
62038;BME280;47991;42.974;12.082;2022-07-23T09:00:55;97887.91;;;34.43;29.73
62038;BME280;47991;42.974;12.082;2022-07-23T09:03:30;97887.66;;;34.89;29.05
62038;BME280;47991;42.974;12.082;2022-07-23T09:06:02;97885.39;;;35.28;28.16
62038;BME280;47991;42.974;12.082;2022-07-23T09:08:38;97880.59;;;35.68;27.53
62038;BME280;47991;42.974;12.082;2022-07-23T09:11:08;97883.52;;;35.88;27.24
62038;BME280;47991;42.974;12.082;2022-07-23T09:13:40;97883.16;;;35.61;27.50
62038;BME280;47991;42.974;12.082;2022-07-23T09:16:12;97883.84;;;35.89;27.94
62038;BME280;47991;42.974;12.082;2022-07-23T09:18:41;97887.46;;;36.04;27.44
62038;BME280;47991;42.974;12.082;2022-07-23T09:21:24;97884.65;;;35.98;25.59
62038;BME280;47991;42.974;12.082;2022-07-23T09:24:05;97889.99;;;36.02;25.01
62038;BME280;47991;42.974;12.082;2022-07-23T09:26:37;97890.24;;;36.21;25.08
62038;BME280;47991;42.974;12.082;2022-07-23T09:29:17;97890.41;;;36.45;24.84
62038;BME280;47991;42.974;12.082;2022-07-23T09:31:59;97895.66;;;36.66;24.20
62038;BME280;47991;42.974;12.082;2022-07-23T09:34:35;97889.15;;;36.76;23.84
62038;BME280;47991;42.974;12.082;2022-07-23T09:37:15;97888.65;;;36.80;23.20
62038;BME280;47991;42.974;12.082;2022-07-23T09:39:45;97887.09;;;36.73;23.13
62038;BME280;47991;42.974;12.082;2022-07-23T09:44:47;97885.95;;;36.94;24.08
62038;BME280;47991;42.974;12.082;2022-07-23T09:47:16;97885.29;;;36.51;24.24
62038;BME280;47991;42.974;12.082;2022-07-23T09:52:33;97880.39;;;36.48;25.40
62038;BME280;47991;42.974;12.082;2022-07-23T09:55:04;97882.10;;;36.64;25.28
62038;BME280;47991;42.974;12.082;2022-07-23T09:57:32;97880.36;;;37.00;25.36
62038;BME280;47991;42.974;12.082;2022-07-23T10:00:04;97879.42;;;37.19;25.23
62038;BME280;47991;42.974;12.082;2022-07-23T10:02:33;97880.06;;;36.72;24.72
62038;BME280;47991;42.974;12.082;2022-07-23T10:05:21;97877.52;;;36.42;25.11
62038;BME280;47991;42.974;12.082;2022-07-23T10:08:12;97873.37;;;36.57;25.31
62038;BME280;47991;42.974;12.082;2022-07-23T10:11:00;97869.89;;;36.99;24.86
62038;BME280;47991;42.974;12.082;2022-07-23T10:13:31;97863.64;;;37.36;24.13
62038;BME280;47991;42.974;12.082;2022-07-23T10:16:12;97858.73;;;37.69;23.68
62038;BME280;47991;42.974;12.082;2022-07-23T10:18:40;97857.90;;;37.90;23.33
62038;BME280;47991;42.974;12.082;2022-07-23T10:21:08;97858.11;;;38.14;22.79
62038;BME280;47991;42.974;12.082;2022-07-23T10:23:45;97856.75;;;38.37;22.40
62038;BME280;47991;42.974;12.082;2022-07-23T10:29:05;97858.52;;;38.43;22.68
62038;BME280;47991;42.974;12.082;2022-07-23T10:32:02;97853.99;;;38.54;22.11
62038;BME280;47991;42.974;12.082;2022-07-23T10:34:46;97849.11;;;38.25;22.20
62038;BME280;47991;42.974;12.082;2022-07-23T10:37:38;97849.24;;;37.56;21.99
62038;BME280;47991;42.974;12.082;2022-07-23T10:42:41;97846.83;;;37.74;22.44
62038;BME280;47991;42.974;12.082;2022-07-23T10:45:34;97846.17;;;38.13;21.91
62038;BME280;47991;42.974;12.082;2022-07-23T10:48:24;97839.52;;;37.96;21.91
62038;BME280;47991;42.974;12.082;2022-07-23T10:51:12;97841.06;;;38.18;21.84
62038;BME280;47991;42.974;12.082;2022-07-23T10:53:56;97835.96;;;38.34;22.11
62038;BME280;47991;42.974;12.082;2022-07-23T10:57:16;97833.09;;;38.67;21.47
62038;BME280;47991;42.974;12.082;2022-07-23T11:02:42;97824.67;;;37.75;21.76
62038;BME280;47991;42.974;12.082;2022-07-23T11:05:19;97819.35;;;37.92;21.67
62038;BME280;47991;42.974;12.082;2022-07-23T11:10:46;97819.05;;;38.11;21.64
62038;BME280;47991;42.974;12.082;2022-07-23T11:13:32;97814.70;;;38.09;21.12
62038;BME280;47991;42.974;12.082;2022-07-23T11:24:18;97801.51;;;37.51;21.18
62038;BME280;47991;42.974;12.082;2022-07-23T11:26:47;97803.90;;;37.72;21.43
62038;BME280;47991;42.974;12.082;2022-07-23T11:32:03;97799.06;;;38.48;20.18
62038;BME280;47991;42.974;12.082;2022-07-23T11:37:08;97776.73;;;38.89;20.49
62038;BME280;47991;42.974;12.082;2022-07-23T11:39:36;97781.41;;;39.10;20.06
62038;BME280;47991;42.974;12.082;2022-07-23T11:42:06;97780.40;;;39.00;19.47
62038;BME280;47991;42.974;12.082;2022-07-23T11:44:37;97781.34;;;39.22;19.26
62038;BME280;47991;42.974;12.082;2022-07-23T11:47:09;97778.06;;;39.10;18.96
62038;BME280;47991;42.974;12.082;2022-07-23T11:49:37;97779.30;;;38.71;19.03
62038;BME280;47991;42.974;12.082;2022-07-23T11:54:40;97769.42;;;38.60;19.43
62038;BME280;47991;42.974;12.082;2022-07-23T11:57:15;97769.85;;;38.30;19.83
62038;BME280;47991;42.974;12.082;2022-07-23T11:59:47;97764.95;;;37.85;20.81
62038;BME280;47991;42.974;12.082;2022-07-23T12:02:15;97761.05;;;37.76;21.11
62038;BME280;47991;42.974;12.082;2022-07-23T12:04:45;97753.16;;;37.93;21.11
62038;BME280;47991;42.974;12.082;2022-07-23T12:07:31;97755.73;;;38.24;20.67
62038;BME280;47991;42.974;12.082;2022-07-23T12:10:02;97755.63;;;38.35;20.40
62038;BME280;47991;42.974;12.082;2022-07-23T12:15:06;97744.48;;;38.94;20.44
62038;BME280;47991;42.974;12.082;2022-07-23T12:17:37;97737.68;;;39.27;19.77
62038;BME280;47991;42.974;12.082;2022-07-23T12:20:12;97738.82;;;39.47;19.21
62038;BME280;47991;42.974;12.082;2022-07-23T12:22:43;97743.93;;;38.88;19.12
62038;BME280;47991;42.974;12.082;2022-07-23T12:25:14;97733.36;;;38.25;19.38
62038;BME280;47991;42.974;12.082;2022-07-23T12:27:43;97733.03;;;38.29;18.43
62038;BME280;47991;42.974;12.082;2022-07-23T12:32:50;97730.98;;;39.12;17.94
62038;BME280;47991;42.974;12.082;2022-07-23T12:35:19;97731.45;;;39.19;17.22
62038;BME280;47991;42.974;12.082;2022-07-23T12:37:50;97730.42;;;38.72;17.00
62038;BME280;47991;42.974;12.082;2022-07-23T12:40:24;97730.55;;;38.45;16.50
62038;BME280;47991;42.974;12.082;2022-07-23T12:43:01;97730.16;;;38.53;16.86
62038;BME280;47991;42.974;12.082;2022-07-23T12:45:54;97726.31;;;38.69;16.62
62038;BME280;47991;42.974;12.082;2022-07-23T12:48:28;97730.39;;;37.86;16.80
62038;BME280;47991;42.974;12.082;2022-07-23T12:51:02;97726.41;;;37.62;17.49
62038;BME280;47991;42.974;12.082;2022-07-23T12:53:43;97721.40;;;37.90;17.71
62038;BME280;47991;42.974;12.082;2022-07-23T12:56:26;97725.27;;;38.31;17.00
62038;BME280;47991;42.974;12.082;2022-07-23T12:58:58;97721.69;;;38.57;16.72
62038;BME280;47991;42.974;12.082;2022-07-23T13:01:33;97717.41;;;38.73;17.05
62038;BME280;47991;42.974;12.082;2022-07-23T13:04:18;97718.98;;;39.00;16.88
62038;BME280;47991;42.974;12.082;2022-07-23T13:06:49;97719.23;;;39.20;16.46
62038;BME280;47991;42.974;12.082;2022-07-23T13:09:20;97717.62;;;39.36;16.64
62038;BME280;47991;42.974;12.082;2022-07-23T13:11:49;97714.06;;;39.08;16.55
62038;BME280;47991;42.974;12.082;2022-07-23T13:14:19;97707.98;;;38.89;16.34
62038;BME280;47991;42.974;12.082;2022-07-23T13:16:49;97711.77;;;38.94;16.98
62038;BME280;47991;42.974;12.082;2022-07-23T13:19:17;97710.74;;;38.90;17.83
62038;BME280;47991;42.974;12.082;2022-07-23T13:21:46;97703.83;;;39.02;17.88
62038;BME280;47991;42.974;12.082;2022-07-23T13:24:15;97704.73;;;39.05;17.33
62038;BME280;47991;42.974;12.082;2022-07-23T13:26:44;97705.17;;;38.89;17.28
62038;BME280;47991;42.974;12.082;2022-07-23T13:29:14;97707.73;;;39.13;17.42
62038;BME280;47991;42.974;12.082;2022-07-23T13:31:42;97699.46;;;38.44;19.79
62038;BME280;47991;42.974;12.082;2022-07-23T13:34:11;97702.20;;;38.32;20.01
62038;BME280;47991;42.974;12.082;2022-07-23T13:36:39;97701.40;;;38.50;20.12
62038;BME280;47991;42.974;12.082;2022-07-23T13:39:07;97701.93;;;38.59;20.01
62038;BME280;47991;42.974;12.082;2022-07-23T13:41:37;97702.84;;;38.26;20.07
62038;BME280;47991;42.974;12.082;2022-07-23T13:44:06;97702.84;;;38.18;20.26
62038;BME280;47991;42.974;12.082;2022-07-23T13:46:37;97700.41;;;38.20;20.56